PHX weather

Phoenix Sky Harbor International Airport
Phoenix, Arizona, United States

Public forecast

Using degrees Fahrenheit for public forecast. Weather courtesy of forecast.io.

Current aviation weather report (METAR) for Phoenix Sky Harbor International Airport

Retrieved 2020/01/23 09:51 UTC (40 minutes ago):

KPHX 230951Z 11004KT 10SM CLR 10/08 A3011 RMK AO2 SLP192 T01000078

Aviation forecast (TAF) for Phoenix Sky Harbor International Airport

Retrieved 2020/01/23 06:22 UTC (4 hours ago):

TAF KPHX 230520Z 2306/2412 09003KT P6SM FEW050 FEW250 FM232200 27004KT P6SM FEW250 FM240600 10004KT P6SM SCT250